sensor_id;sensor_type;location;lat;lon;timestamp;P1;durP1;ratioP1;P2;durP2;ratioP2
21060;SDS011;10689;50.836;3.266;2022-07-21T00:01:47;4.50;;;3.00;;
21060;SDS011;10689;50.836;3.266;2022-07-21T00:04:14;5.65;;;2.70;;
21060;SDS011;10689;50.836;3.266;2022-07-21T00:06:40;5.82;;;2.97;;
21060;SDS011;10689;50.836;3.266;2022-07-21T00:09:07;4.40;;;2.78;;
21060;SDS011;10689;50.836;3.266;2022-07-21T00:11:34;4.18;;;2.95;;
21060;SDS011;10689;50.836;3.266;2022-07-21T00:14:00;5.45;;;3.05;;
21060;SDS011;10689;50.836;3.266;2022-07-21T00:16:25;5.43;;;3.42;;
21060;SDS011;10689;50.836;3.266;2022-07-21T00:18:51;6.53;;;3.22;;
21060;SDS011;10689;50.836;3.266;2022-07-21T00:21:17;4.80;;;3.13;;
21060;SDS011;10689;50.836;3.266;2022-07-21T00:23:42;3.72;;;3.30;;
21060;SDS011;10689;50.836;3.266;2022-07-21T00:26:08;5.32;;;3.22;;
21060;SDS011;10689;50.836;3.266;2022-07-21T00:28:34;6.85;;;3.50;;
21060;SDS011;10689;50.836;3.266;2022-07-21T00:31:00;7.38;;;3.13;;
21060;SDS011;10689;50.836;3.266;2022-07-21T00:33:25;5.32;;;3.35;;
21060;SDS011;10689;50.836;3.266;2022-07-21T00:35:51;8.77;;;3.40;;
21060;SDS011;10689;50.836;3.266;2022-07-21T00:38:17;9.10;;;3.53;;
21060;SDS011;10689;50.836;3.266;2022-07-21T00:40:42;6.75;;;3.63;;
21060;SDS011;10689;50.836;3.266;2022-07-21T00:43:08;6.45;;;3.20;;
21060;SDS011;10689;50.836;3.266;2022-07-21T00:45:35;5.30;;;3.40;;
21060;SDS011;10689;50.836;3.266;2022-07-21T00:48:00;5.68;;;3.28;;
21060;SDS011;10689;50.836;3.266;2022-07-21T00:50:26;4.65;;;3.63;;
21060;SDS011;10689;50.836;3.266;2022-07-21T00:52:52;7.40;;;3.47;;
21060;SDS011;10689;50.836;3.266;2022-07-21T00:55:19;5.50;;;3.10;;
21060;SDS011;10689;50.836;3.266;2022-07-21T00:57:46;6.63;;;3.60;;
21060;SDS011;10689;50.836;3.266;2022-07-21T01:00:15;6.57;;;3.90;;
21060;SDS011;10689;50.836;3.266;2022-07-21T01:02:43;4.78;;;3.47;;
21060;SDS011;10689;50.836;3.266;2022-07-21T01:05:11;11.75;;;3.90;;
21060;SDS011;10689;50.836;3.266;2022-07-21T01:07:43;8.25;;;3.85;;
21060;SDS011;10689;50.836;3.266;2022-07-21T01:10:11;7.43;;;3.65;;
21060;SDS011;10689;50.836;3.266;2022-07-21T01:12:39;5.85;;;4.05;;
21060;SDS011;10689;50.836;3.266;2022-07-21T01:15:06;7.55;;;4.30;;
21060;SDS011;10689;50.836;3.266;2022-07-21T01:17:33;7.82;;;4.35;;
21060;SDS011;10689;50.836;3.266;2022-07-21T01:20:09;7.07;;;3.80;;
21060;SDS011;10689;50.836;3.266;2022-07-21T01:22:38;8.95;;;4.80;;
21060;SDS011;10689;50.836;3.266;2022-07-21T01:25:06;3.90;;;3.50;;
21060;SDS011;10689;50.836;3.266;2022-07-21T01:27:32;8.60;;;4.07;;
21060;SDS011;10689;50.836;3.266;2022-07-21T01:29:58;5.07;;;4.30;;
21060;SDS011;10689;50.836;3.266;2022-07-21T01:32:24;6.72;;;4.38;;
21060;SDS011;10689;50.836;3.266;2022-07-21T01:34:50;6.45;;;4.18;;
21060;SDS011;10689;50.836;3.266;2022-07-21T01:37:20;9.02;;;4.45;;
21060;SDS011;10689;50.836;3.266;2022-07-21T01:39:47;5.57;;;4.30;;
21060;SDS011;10689;50.836;3.266;2022-07-21T01:42:33;6.70;;;4.55;;
21060;SDS011;10689;50.836;3.266;2022-07-21T01:44:58;9.15;;;5.78;;
21060;SDS011;10689;50.836;3.266;2022-07-21T01:47:24;9.45;;;4.93;;
21060;SDS011;10689;50.836;3.266;2022-07-21T01:49:50;6.32;;;4.70;;
21060;SDS011;10689;50.836;3.266;2022-07-21T01:52:16;9.05;;;5.50;;
21060;SDS011;10689;50.836;3.266;2022-07-21T01:54:42;9.15;;;5.60;;
21060;SDS011;10689;50.836;3.266;2022-07-21T01:57:08;10.32;;;5.63;;
21060;SDS011;10689;50.836;3.266;2022-07-21T01:59:34;10.75;;;6.32;;
21060;SDS011;10689;50.836;3.266;2022-07-21T02:02:00;10.50;;;6.10;;
21060;SDS011;10689;50.836;3.266;2022-07-21T02:04:25;12.77;;;5.78;;
21060;SDS011;10689;50.836;3.266;2022-07-21T02:06:51;9.18;;;6.72;;
21060;SDS011;10689;50.836;3.266;2022-07-21T02:09:17;11.55;;;6.13;;
21060;SDS011;10689;50.836;3.266;2022-07-21T02:11:42;14.73;;;7.05;;
21060;SDS011;10689;50.836;3.266;2022-07-21T02:14:08;12.23;;;7.30;;
21060;SDS011;10689;50.836;3.266;2022-07-21T02:16:34;10.57;;;7.25;;
21060;SDS011;10689;50.836;3.266;2022-07-21T02:18:59;10.13;;;6.13;;
21060;SDS011;10689;50.836;3.266;2022-07-21T02:21:25;11.18;;;7.00;;
21060;SDS011;10689;50.836;3.266;2022-07-21T02:23:51;12.30;;;7.07;;
21060;SDS011;10689;50.836;3.266;2022-07-21T02:26:17;12.38;;;7.43;;
21060;SDS011;10689;50.836;3.266;2022-07-21T02:28:43;9.98;;;6.68;;
21060;SDS011;10689;50.836;3.266;2022-07-21T02:31:09;8.52;;;6.05;;
21060;SDS011;10689;50.836;3.266;2022-07-21T02:33:35;11.82;;;8.10;;
21060;SDS011;10689;50.836;3.266;2022-07-21T02:36:01;9.52;;;6.53;;
21060;SDS011;10689;50.836;3.266;2022-07-21T02:38:27;13.43;;;7.13;;
21060;SDS011;10689;50.836;3.266;2022-07-21T02:40:53;7.95;;;7.15;;
21060;SDS011;10689;50.836;3.266;2022-07-21T02:43:19;10.82;;;7.63;;
21060;SDS011;10689;50.836;3.266;2022-07-21T02:45:45;12.25;;;8.23;;
21060;SDS011;10689;50.836;3.266;2022-07-21T02:48:11;9.32;;;6.68;;
21060;SDS011;10689;50.836;3.266;2022-07-21T02:50:38;8.60;;;6.97;;
21060;SDS011;10689;50.836;3.266;2022-07-21T02:53:07;11.65;;;7.95;;
21060;SDS011;10689;50.836;3.266;2022-07-21T02:55:45;10.02;;;7.80;;
21060;SDS011;10689;50.836;3.266;2022-07-21T02:58:12;13.73;;;8.50;;
21060;SDS011;10689;50.836;3.266;2022-07-21T03:00:43;11.15;;;8.43;;
21060;SDS011;10689;50.836;3.266;2022-07-21T03:03:30;13.68;;;7.82;;
21060;SDS011;10689;50.836;3.266;2022-07-21T03:05:59;12.77;;;8.90;;
21060;SDS011;10689;50.836;3.266;2022-07-21T03:08:25;11.55;;;8.48;;
21060;SDS011;10689;50.836;3.266;2022-07-21T03:10:52;13.88;;;8.88;;
21060;SDS011;10689;50.836;3.266;2022-07-21T03:13:19;10.32;;;8.85;;
21060;SDS011;10689;50.836;3.266;2022-07-21T03:15:46;15.77;;;10.23;;
21060;SDS011;10689;50.836;3.266;2022-07-21T03:18:11;14.90;;;9.43;;
21060;SDS011;10689;50.836;3.266;2022-07-21T03:20:39;15.57;;;9.45;;
21060;SDS011;10689;50.836;3.266;2022-07-21T03:23:06;15.05;;;10.13;;
21060;SDS011;10689;50.836;3.266;2022-07-21T03:25:32;13.82;;;11.13;;
21060;SDS011;10689;50.836;3.266;2022-07-21T03:27:58;17.75;;;10.80;;
21060;SDS011;10689;50.836;3.266;2022-07-21T03:30:24;18.52;;;10.55;;
21060;SDS011;10689;50.836;3.266;2022-07-21T03:32:51;14.27;;;10.77;;
21060;SDS011;10689;50.836;3.266;2022-07-21T03:35:17;17.90;;;11.38;;
21060;SDS011;10689;50.836;3.266;2022-07-21T03:37:53;12.90;;;10.63;;
21060;SDS011;10689;50.836;3.266;2022-07-21T03:40:24;14.45;;;11.07;;
21060;SDS011;10689;50.836;3.266;2022-07-21T03:42:52;16.48;;;11.30;;
21060;SDS011;10689;50.836;3.266;2022-07-21T03:45:19;17.55;;;12.38;;
21060;SDS011;10689;50.836;3.266;2022-07-21T03:47:45;19.80;;;11.07;;
21060;SDS011;10689;50.836;3.266;2022-07-21T03:50:11;16.92;;;11.90;;
21060;SDS011;10689;50.836;3.266;2022-07-21T03:52:38;16.08;;;12.50;;
21060;SDS011;10689;50.836;3.266;2022-07-21T03:55:04;16.35;;;11.32;;
21060;SDS011;10689;50.836;3.266;2022-07-21T03:57:40;18.45;;;11.93;;
21060;SDS011;10689;50.836;3.266;2022-07-21T04:00:12;22.30;;;12.07;;
21060;SDS011;10689;50.836;3.266;2022-07-21T04:02:41;16.45;;;12.05;;
21060;SDS011;10689;50.836;3.266;2022-07-21T04:05:10;17.63;;;12.68;;
21060;SDS011;10689;50.836;3.266;2022-07-21T04:07:41;20.45;;;13.27;;
21060;SDS011;10689;50.836;3.266;2022-07-21T04:10:08;21.10;;;12.30;;
21060;SDS011;10689;50.836;3.266;2022-07-21T04:12:36;19.38;;;13.02;;
21060;SDS011;10689;50.836;3.266;2022-07-21T04:15:03;18.23;;;12.88;;
21060;SDS011;10689;50.836;3.266;2022-07-21T04:17:29;18.02;;;12.88;;
21060;SDS011;10689;50.836;3.266;2022-07-21T04:19:55;17.20;;;12.70;;
21060;SDS011;10689;50.836;3.266;2022-07-21T04:22:21;20.95;;;13.07;;
21060;SDS011;10689;50.836;3.266;2022-07-21T04:24:46;17.05;;;11.65;;
21060;SDS011;10689;50.836;3.266;2022-07-21T04:27:12;19.25;;;13.50;;
21060;SDS011;10689;50.836;3.266;2022-07-21T04:29:38;20.25;;;13.43;;
21060;SDS011;10689;50.836;3.266;2022-07-21T04:32:03;20.45;;;13.90;;
21060;SDS011;10689;50.836;3.266;2022-07-21T04:34:30;18.08;;;13.38;;
21060;SDS011;10689;50.836;3.266;2022-07-21T04:36:56;20.80;;;13.00;;
21060;SDS011;10689;50.836;3.266;2022-07-21T04:39:21;19.10;;;13.43;;
21060;SDS011;10689;50.836;3.266;2022-07-21T04:41:48;20.23;;;12.93;;
21060;SDS011;10689;50.836;3.266;2022-07-21T04:44:13;23.38;;;14.00;;
21060;SDS011;10689;50.836;3.266;2022-07-21T04:46:39;21.30;;;12.63;;
21060;SDS011;10689;50.836;3.266;2022-07-21T04:49:05;20.67;;;13.43;;
21060;SDS011;10689;50.836;3.266;2022-07-21T04:51:30;23.15;;;14.40;;
21060;SDS011;10689;50.836;3.266;2022-07-21T04:53:56;19.58;;;13.63;;
21060;SDS011;10689;50.836;3.266;2022-07-21T04:56:21;22.80;;;13.50;;
21060;SDS011;10689;50.836;3.266;2022-07-21T04:58:47;22.92;;;13.70;;
21060;SDS011;10689;50.836;3.266;2022-07-21T05:01:13;22.33;;;14.35;;
21060;SDS011;10689;50.836;3.266;2022-07-21T05:03:39;17.58;;;13.63;;
21060;SDS011;10689;50.836;3.266;2022-07-21T05:06:04;23.05;;;14.30;;
21060;SDS011;10689;50.836;3.266;2022-07-21T05:08:30;20.15;;;14.20;;
21060;SDS011;10689;50.836;3.266;2022-07-21T05:10:56;19.00;;;12.95;;
21060;SDS011;10689;50.836;3.266;2022-07-21T05:13:22;17.85;;;13.20;;
21060;SDS011;10689;50.836;3.266;2022-07-21T05:15:48;18.70;;;14.15;;
21060;SDS011;10689;50.836;3.266;2022-07-21T05:18:13;18.77;;;13.18;;
21060;SDS011;10689;50.836;3.266;2022-07-21T05:20:40;17.98;;;13.35;;
21060;SDS011;10689;50.836;3.266;2022-07-21T05:23:05;19.63;;;13.15;;
21060;SDS011;10689;50.836;3.266;2022-07-21T05:25:33;18.92;;;12.82;;
21060;SDS011;10689;50.836;3.266;2022-07-21T05:28:00;22.33;;;14.75;;
21060;SDS011;10689;50.836;3.266;2022-07-21T05:30:26;24.08;;;14.32;;
21060;SDS011;10689;50.836;3.266;2022-07-21T05:32:52;18.98;;;12.98;;
21060;SDS011;10689;50.836;3.266;2022-07-21T05:35:18;22.05;;;14.02;;
21060;SDS011;10689;50.836;3.266;2022-07-21T05:37:43;25.25;;;14.35;;
21060;SDS011;10689;50.836;3.266;2022-07-21T05:40:10;22.02;;;13.30;;
21060;SDS011;10689;50.836;3.266;2022-07-21T05:42:36;19.83;;;14.60;;
21060;SDS011;10689;50.836;3.266;2022-07-21T05:45:03;22.45;;;14.18;;
21060;SDS011;10689;50.836;3.266;2022-07-21T05:47:29;18.95;;;13.88;;
21060;SDS011;10689;50.836;3.266;2022-07-21T05:49:56;24.30;;;15.40;;
21060;SDS011;10689;50.836;3.266;2022-07-21T05:52:23;23.92;;;15.68;;
21060;SDS011;10689;50.836;3.266;2022-07-21T05:54:49;27.30;;;16.02;;
21060;SDS011;10689;50.836;3.266;2022-07-21T05:57:15;30.85;;;15.77;;
21060;SDS011;10689;50.836;3.266;2022-07-21T05:59:40;27.27;;;16.05;;
21060;SDS011;10689;50.836;3.266;2022-07-21T06:02:07;25.13;;;16.08;;
21060;SDS011;10689;50.836;3.266;2022-07-21T06:04:33;20.70;;;15.23;;
21060;SDS011;10689;50.836;3.266;2022-07-21T06:06:58;24.58;;;15.95;;
21060;SDS011;10689;50.836;3.266;2022-07-21T06:09:24;22.52;;;15.77;;
21060;SDS011;10689;50.836;3.266;2022-07-21T06:11:50;23.67;;;15.80;;
21060;SDS011;10689;50.836;3.266;2022-07-21T06:14:15;24.95;;;16.65;;
21060;SDS011;10689;50.836;3.266;2022-07-21T06:16:41;21.58;;;15.00;;
21060;SDS011;10689;50.836;3.266;2022-07-21T06:19:07;24.25;;;17.27;;
21060;SDS011;10689;50.836;3.266;2022-07-21T06:21:33;24.00;;;16.17;;
21060;SDS011;10689;50.836;3.266;2022-07-21T06:23:58;24.63;;;16.30;;
21060;SDS011;10689;50.836;3.266;2022-07-21T06:26:25;28.92;;;17.20;;
21060;SDS011;10689;50.836;3.266;2022-07-21T06:28:51;29.00;;;18.58;;
21060;SDS011;10689;50.836;3.266;2022-07-21T06:31:17;25.55;;;17.23;;
21060;SDS011;10689;50.836;3.266;2022-07-21T06:33:43;24.77;;;15.70;;
21060;SDS011;10689;50.836;3.266;2022-07-21T06:36:09;24.17;;;16.23;;
21060;SDS011;10689;50.836;3.266;2022-07-21T06:38:35;28.80;;;17.20;;
21060;SDS011;10689;50.836;3.266;2022-07-21T06:41:01;24.52;;;16.75;;
21060;SDS011;10689;50.836;3.266;2022-07-21T06:43:27;30.73;;;17.95;;
21060;SDS011;10689;50.836;3.266;2022-07-21T06:45:53;28.60;;;17.40;;
21060;SDS011;10689;50.836;3.266;2022-07-21T06:48:19;26.98;;;16.25;;
21060;SDS011;10689;50.836;3.266;2022-07-21T06:50:46;26.60;;;16.75;;
21060;SDS011;10689;50.836;3.266;2022-07-21T06:53:12;29.90;;;17.45;;
21060;SDS011;10689;50.836;3.266;2022-07-21T06:55:38;25.70;;;16.92;;
21060;SDS011;10689;50.836;3.266;2022-07-21T06:58:10;26.10;;;18.60;;
21060;SDS011;10689;50.836;3.266;2022-07-21T07:00:41;25.00;;;17.75;;
21060;SDS011;10689;50.836;3.266;2022-07-21T07:03:08;32.00;;;18.80;;
21060;SDS011;10689;50.836;3.266;2022-07-21T07:05:34;28.60;;;17.88;;
21060;SDS011;10689;50.836;3.266;2022-07-21T07:08:00;31.50;;;18.10;;
21060;SDS011;10689;50.836;3.266;2022-07-21T07:10:26;28.58;;;17.73;;
21060;SDS011;10689;50.836;3.266;2022-07-21T07:12:52;29.30;;;18.50;;
21060;SDS011;10689;50.836;3.266;2022-07-21T07:15:18;24.88;;;17.77;;
21060;SDS011;10689;50.836;3.266;2022-07-21T07:17:43;27.33;;;17.85;;
21060;SDS011;10689;50.836;3.266;2022-07-21T07:20:09;32.00;;;17.50;;
21060;SDS011;10689;50.836;3.266;2022-07-21T07:22:35;29.35;;;16.95;;
21060;SDS011;10689;50.836;3.266;2022-07-21T07:25:01;30.40;;;17.48;;
21060;SDS011;10689;50.836;3.266;2022-07-21T07:27:27;27.80;;;18.75;;
21060;SDS011;10689;50.836;3.266;2022-07-21T07:29:53;26.15;;;17.70;;
21060;SDS011;10689;50.836;3.266;2022-07-21T07:32:19;23.88;;;17.08;;
21060;SDS011;10689;50.836;3.266;2022-07-21T07:34:45;26.42;;;17.45;;
21060;SDS011;10689;50.836;3.266;2022-07-21T07:37:10;26.10;;;16.52;;
21060;SDS011;10689;50.836;3.266;2022-07-21T07:39:36;23.40;;;17.08;;
21060;SDS011;10689;50.836;3.266;2022-07-21T07:42:03;23.38;;;16.40;;
21060;SDS011;10689;50.836;3.266;2022-07-21T07:44:30;24.02;;;16.65;;
21060;SDS011;10689;50.836;3.266;2022-07-21T07:46:56;28.65;;;18.67;;
21060;SDS011;10689;50.836;3.266;2022-07-21T07:49:22;24.48;;;15.05;;
21060;SDS011;10689;50.836;3.266;2022-07-21T07:51:48;16.60;;;12.93;;
21060;SDS011;10689;50.836;3.266;2022-07-21T07:54:14;15.13;;;12.10;;
21060;SDS011;10689;50.836;3.266;2022-07-21T07:56:40;17.13;;;11.40;;
21060;SDS011;10689;50.836;3.266;2022-07-21T07:59:07;17.75;;;12.23;;
21060;SDS011;10689;50.836;3.266;2022-07-21T08:01:33;15.07;;;10.93;;
21060;SDS011;10689;50.836;3.266;2022-07-21T08:03:59;13.45;;;9.68;;
21060;SDS011;10689;50.836;3.266;2022-07-21T08:06:24;12.13;;;8.27;;
21060;SDS011;10689;50.836;3.266;2022-07-21T08:08:50;12.40;;;7.93;;
21060;SDS011;10689;50.836;3.266;2022-07-21T08:11:16;11.27;;;7.63;;
21060;SDS011;10689;50.836;3.266;2022-07-21T08:13:42;12.30;;;8.05;;
21060;SDS011;10689;50.836;3.266;2022-07-21T08:16:08;9.82;;;7.47;;
21060;SDS011;10689;50.836;3.266;2022-07-21T08:18:33;2.45;;;2.25;;
21060;SDS011;10689;50.836;3.266;2022-07-21T08:20:59;1.15;;;1.15;;
21060;SDS011;10689;50.836;3.266;2022-07-21T08:23:25;0.85;;;0.85;;
21060;SDS011;10689;50.836;3.266;2022-07-21T08:25:50;5.05;;;2.35;;
21060;SDS011;10689;50.836;3.266;2022-07-21T08:28:16;6.38;;;1.60;;
21060;SDS011;10689;50.836;3.266;2022-07-21T08:30:42;2.58;;;2.38;;
21060;SDS011;10689;50.836;3.266;2022-07-21T08:33:08;2.00;;;1.90;;
21060;SDS011;10689;50.836;3.266;2022-07-21T08:35:34;1.58;;;1.48;;
21060;SDS011;10689;50.836;3.266;2022-07-21T08:38:01;1.08;;;1.08;;
21060;SDS011;10689;50.836;3.266;2022-07-21T08:40:33;1.50;;;1.45;;
21060;SDS011;10689;50.836;3.266;2022-07-21T08:43:01;2.13;;;1.63;;
21060;SDS011;10689;50.836;3.266;2022-07-21T08:45:27;4.38;;;2.03;;
21060;SDS011;10689;50.836;3.266;2022-07-21T08:47:55;2.92;;;1.35;;
21060;SDS011;10689;50.836;3.266;2022-07-21T08:50:22;5.72;;;1.58;;
21060;SDS011;10689;50.836;3.266;2022-07-21T08:52:49;1.00;;;1.00;;
21060;SDS011;10689;50.836;3.266;2022-07-21T08:55:15;0.88;;;0.88;;
21060;SDS011;10689;50.836;3.266;2022-07-21T08:57:41;1.27;;;1.00;;
21060;SDS011;10689;50.836;3.266;2022-07-21T09:00:08;5.57;;;1.40;;
21060;SDS011;10689;50.836;3.266;2022-07-21T09:02:34;0.70;;;0.70;;
21060;SDS011;10689;50.836;3.266;2022-07-21T09:05:02;0.47;;;0.47;;
21060;SDS011;10689;50.836;3.266;2022-07-21T09:10:32;1.02;;;1.00;;
21060;SDS011;10689;50.836;3.266;2022-07-21T09:13:03;1.38;;;1.30;;
21060;SDS011;10689;50.836;3.266;2022-07-21T09:15:31;1.23;;;1.13;;
21060;SDS011;10689;50.836;3.266;2022-07-21T09:20:34;0.55;;;0.55;;
21060;SDS011;10689;50.836;3.266;2022-07-21T09:23:11;1.00;;;1.00;;
21060;SDS011;10689;50.836;3.266;2022-07-21T09:25:39;2.78;;;1.80;;
21060;SDS011;10689;50.836;3.266;2022-07-21T09:28:09;3.17;;;1.42;;
21060;SDS011;10689;50.836;3.266;2022-07-21T09:36:03;2.08;;;1.73;;
21060;SDS011;10689;50.836;3.266;2022-07-21T09:38:39;1.42;;;1.33;;
21060;SDS011;10689;50.836;3.266;2022-07-21T09:43:37;1.92;;;1.77;;
21060;SDS011;10689;50.836;3.266;2022-07-21T09:46:09;2.58;;;1.77;;
21060;SDS011;10689;50.836;3.266;2022-07-21T09:48:44;1.33;;;0.95;;
21060;SDS011;10689;50.836;3.266;2022-07-21T09:53:49;0.85;;;0.85;;
21060;SDS011;10689;50.836;3.266;2022-07-21T09:56:35;8.77;;;2.90;;
21060;SDS011;10689;50.836;3.266;2022-07-21T09:59:06;1.67;;;0.77;;
21060;SDS011;10689;50.836;3.266;2022-07-21T10:01:33;1.80;;;1.38;;
21060;SDS011;10689;50.836;3.266;2022-07-21T10:04:01;1.13;;;1.08;;
21060;SDS011;10689;50.836;3.266;2022-07-21T10:06:29;0.70;;;0.70;;
21060;SDS011;10689;50.836;3.266;2022-07-21T10:09:03;2.05;;;1.27;;
21060;SDS011;10689;50.836;3.266;2022-07-21T10:11:30;1.50;;;1.40;;
21060;SDS011;10689;50.836;3.266;2022-07-21T10:13:56;0.60;;;0.60;;
21060;SDS011;10689;50.836;3.266;2022-07-21T10:16:22;12.07;;;1.25;;
21060;SDS011;10689;50.836;3.266;2022-07-21T10:23:55;2.45;;;1.15;;
21060;SDS011;10689;50.836;3.266;2022-07-21T10:26:21;0.73;;;0.73;;
21060;SDS011;10689;50.836;3.266;2022-07-21T10:28:47;4.88;;;1.05;;
21060;SDS011;10689;50.836;3.266;2022-07-21T10:31:23;0.75;;;0.75;;
21060;SDS011;10689;50.836;3.266;2022-07-21T10:33:53;1.10;;;1.08;;
21060;SDS011;10689;50.836;3.266;2022-07-21T10:39:27;2.55;;;1.95;;
21060;SDS011;10689;50.836;3.266;2022-07-21T10:41:52;1.42;;;1.05;;
21060;SDS011;10689;50.836;3.266;2022-07-21T10:49:43;1.17;;;1.08;;
21060;SDS011;10689;50.836;3.266;2022-07-21T10:55:18;0.60;;;0.60;;
21060;SDS011;10689;50.836;3.266;2022-07-21T10:58:13;0.98;;;0.88;;
21060;SDS011;10689;50.836;3.266;2022-07-21T11:03:25;1.88;;;0.98;;
21060;SDS011;10689;50.836;3.266;2022-07-21T11:08:32;0.50;;;0.50;;
21060;SDS011;10689;50.836;3.266;2022-07-21T11:11:16;0.95;;;0.95;;
21060;SDS011;10689;50.836;3.266;2022-07-21T11:19:05;0.80;;;0.80;;
21060;SDS011;10689;50.836;3.266;2022-07-21T11:21:52;0.85;;;0.77;;
21060;SDS011;10689;50.836;3.266;2022-07-21T11:24:18;1.38;;;1.27;;
21060;SDS011;10689;50.836;3.266;2022-07-21T11:26:53;1.25;;;0.77;;
21060;SDS011;10689;50.836;3.266;2022-07-21T11:29:23;0.45;;;0.45;;
21060;SDS011;10689;50.836;3.266;2022-07-21T11:31:49;0.60;;;0.60;;
21060;SDS011;10689;50.836;3.266;2022-07-21T11:34:15;0.85;;;0.85;;
21060;SDS011;10689;50.836;3.266;2022-07-21T11:36:41;0.50;;;0.50;;
21060;SDS011;10689;50.836;3.266;2022-07-21T11:39:09;1.30;;;0.90;;
21060;SDS011;10689;50.836;3.266;2022-07-21T11:41:37;0.52;;;0.52;;
21060;SDS011;10689;50.836;3.266;2022-07-21T11:44:06;0.60;;;0.60;;
21060;SDS011;10689;50.836;3.266;2022-07-21T11:49:15;0.52;;;0.52;;
21060;SDS011;10689;50.836;3.266;2022-07-21T11:51:45;1.55;;;1.35;;
21060;SDS011;10689;50.836;3.266;2022-07-21T11:54:34;1.05;;;0.77;;
21060;SDS011;10689;50.836;3.266;2022-07-21T11:57:06;0.75;;;0.68;;
21060;SDS011;10689;50.836;3.266;2022-07-21T11:59:33;1.02;;;0.90;;
21060;SDS011;10689;50.836;3.266;2022-07-21T12:09:45;2.20;;;1.02;;
21060;SDS011;10689;50.836;3.266;2022-07-21T12:12:12;7.32;;;1.48;;
21060;SDS011;10689;50.836;3.266;2022-07-21T12:14:42;1.83;;;0.93;;
21060;SDS011;10689;50.836;3.266;2022-07-21T12:17:13;5.65;;;1.58;;
21060;SDS011;10689;50.836;3.266;2022-07-21T12:19:40;1.02;;;1.02;;
21060;SDS011;10689;50.836;3.266;2022-07-21T12:22:06;0.60;;;0.60;;
21060;SDS011;10689;50.836;3.266;2022-07-21T12:27:27;15.00;;;1.50;;
21060;SDS011;10689;50.836;3.266;2022-07-21T12:29:53;0.73;;;0.73;;
21060;SDS011;10689;50.836;3.266;2022-07-21T12:35:05;1.42;;;1.27;;
21060;SDS011;10689;50.836;3.266;2022-07-21T12:40:21;0.75;;;0.55;;
21060;SDS011;10689;50.836;3.266;2022-07-21T12:42:48;0.60;;;0.60;;
21060;SDS011;10689;50.836;3.266;2022-07-21T12:45:15;0.38;;;0.38;;
21060;SDS011;10689;50.836;3.266;2022-07-21T12:47:43;0.93;;;0.75;;
21060;SDS011;10689;50.836;3.266;2022-07-21T12:50:29;1.30;;;1.20;;
21060;SDS011;10689;50.836;3.266;2022-07-21T12:52:54;5.43;;;3.08;;
21060;SDS011;10689;50.836;3.266;2022-07-21T12:55:20;7.07;;;2.93;;
21060;SDS011;10689;50.836;3.266;2022-07-21T12:57:46;4.90;;;2.67;;
21060;SDS011;10689;50.836;3.266;2022-07-21T13:00:11;4.50;;;2.20;;
21060;SDS011;10689;50.836;3.266;2022-07-21T13:02:47;5.00;;;2.47;;
21060;SDS011;10689;50.836;3.266;2022-07-21T13:05:15;6.80;;;3.03;;
21060;SDS011;10689;50.836;3.266;2022-07-21T13:07:41;6.20;;;2.30;;
21060;SDS011;10689;50.836;3.266;2022-07-21T13:10:07;6.40;;;2.75;;
21060;SDS011;10689;50.836;3.266;2022-07-21T13:12:34;5.68;;;2.60;;
21060;SDS011;10689;50.836;3.266;2022-07-21T13:14:59;7.22;;;2.33;;
21060;SDS011;10689;50.836;3.266;2022-07-21T13:17:25;7.47;;;3.30;;
21060;SDS011;10689;50.836;3.266;2022-07-21T13:19:51;5.40;;;2.97;;
21060;SDS011;10689;50.836;3.266;2022-07-21T13:22:17;5.32;;;2.60;;
21060;SDS011;10689;50.836;3.266;2022-07-21T13:24:43;6.95;;;2.72;;
21060;SDS011;10689;50.836;3.266;2022-07-21T13:27:09;10.32;;;4.07;;
21060;SDS011;10689;50.836;3.266;2022-07-21T13:29:34;7.50;;;3.72;;
21060;SDS011;10689;50.836;3.266;2022-07-21T13:32:01;8.80;;;3.80;;
21060;SDS011;10689;50.836;3.266;2022-07-21T13:34:27;6.35;;;3.33;;
21060;SDS011;10689;50.836;3.266;2022-07-21T13:36:53;8.60;;;4.18;;
21060;SDS011;10689;50.836;3.266;2022-07-21T13:39:19;6.60;;;3.20;;
21060;SDS011;10689;50.836;3.266;2022-07-21T13:41:46;8.52;;;3.80;;
21060;SDS011;10689;50.836;3.266;2022-07-21T13:44:11;6.40;;;3.10;;
21060;SDS011;10689;50.836;3.266;2022-07-21T13:46:37;5.68;;;2.00;;
21060;SDS011;10689;50.836;3.266;2022-07-21T13:49:06;6.07;;;2.50;;
21060;SDS011;10689;50.836;3.266;2022-07-21T13:51:31;6.30;;;2.78;;
21060;SDS011;10689;50.836;3.266;2022-07-21T13:53:58;4.72;;;2.53;;
21060;SDS011;10689;50.836;3.266;2022-07-21T13:56:24;4.78;;;2.42;;
21060;SDS011;10689;50.836;3.266;2022-07-21T13:58:52;4.45;;;2.40;;
21060;SDS011;10689;50.836;3.266;2022-07-21T14:01:18;4.85;;;2.38;;
21060;SDS011;10689;50.836;3.266;2022-07-21T14:03:44;4.13;;;2.20;;
21060;SDS011;10689;50.836;3.266;2022-07-21T14:06:11;5.20;;;2.70;;
21060;SDS011;10689;50.836;3.266;2022-07-21T14:08:37;6.72;;;2.63;;
21060;SDS011;10689;50.836;3.266;2022-07-21T14:11:03;6.30;;;2.78;;
21060;SDS011;10689;50.836;3.266;2022-07-21T14:13:30;4.20;;;2.30;;
21060;SDS011;10689;50.836;3.266;2022-07-21T14:15:56;10.40;;;2.40;;
21060;SDS011;10689;50.836;3.266;2022-07-21T14:18:21;6.45;;;2.60;;
21060;SDS011;10689;50.836;3.266;2022-07-21T14:20:47;6.60;;;2.92;;
21060;SDS011;10689;50.836;3.266;2022-07-21T14:23:16;5.30;;;2.05;;
21060;SDS011;10689;50.836;3.266;2022-07-21T14:25:43;3.60;;;2.25;;
21060;SDS011;10689;50.836;3.266;2022-07-21T14:28:09;6.80;;;3.35;;
21060;SDS011;10689;50.836;3.266;2022-07-21T14:30:35;7.53;;;2.97;;
21060;SDS011;10689;50.836;3.266;2022-07-21T14:33:00;3.67;;;2.25;;
21060;SDS011;10689;50.836;3.266;2022-07-21T14:35:26;5.85;;;1.80;;
21060;SDS011;10689;50.836;3.266;2022-07-21T14:37:52;6.28;;;2.50;;
21060;SDS011;10689;50.836;3.266;2022-07-21T14:40:19;12.10;;;2.40;;
21060;SDS011;10689;50.836;3.266;2022-07-21T14:42:46;4.43;;;2.13;;
21060;SDS011;10689;50.836;3.266;2022-07-21T14:45:12;3.45;;;1.83;;
21060;SDS011;10689;50.836;3.266;2022-07-21T14:47:39;5.55;;;2.47;;
21060;SDS011;10689;50.836;3.266;2022-07-21T14:50:05;4.15;;;2.30;;
21060;SDS011;10689;50.836;3.266;2022-07-21T14:52:31;8.82;;;2.70;;
21060;SDS011;10689;50.836;3.266;2022-07-21T14:54:56;4.38;;;2.42;;
21060;SDS011;10689;50.836;3.266;2022-07-21T14:57:22;4.57;;;2.15;;
21060;SDS011;10689;50.836;3.266;2022-07-21T14:59:48;4.90;;;2.38;;
21060;SDS011;10689;50.836;3.266;2022-07-21T15:02:14;5.55;;;2.70;;
21060;SDS011;10689;50.836;3.266;2022-07-21T15:04:39;5.57;;;2.63;;
21060;SDS011;10689;50.836;3.266;2022-07-21T15:07:05;5.60;;;2.47;;
21060;SDS011;10689;50.836;3.266;2022-07-21T15:09:31;6.93;;;3.05;;
21060;SDS011;10689;50.836;3.266;2022-07-21T15:11:57;6.53;;;2.83;;
21060;SDS011;10689;50.836;3.266;2022-07-21T15:14:23;6.68;;;2.58;;
21060;SDS011;10689;50.836;3.266;2022-07-21T15:16:48;8.60;;;2.90;;
21060;SDS011;10689;50.836;3.266;2022-07-21T15:19:15;7.65;;;2.97;;
21060;SDS011;10689;50.836;3.266;2022-07-21T15:21:40;5.45;;;2.70;;
21060;SDS011;10689;50.836;3.266;2022-07-21T15:24:07;7.05;;;2.40;;
21060;SDS011;10689;50.836;3.266;2022-07-21T15:26:33;6.38;;;2.80;;
21060;SDS011;10689;50.836;3.266;2022-07-21T15:28:59;6.07;;;2.63;;
21060;SDS011;10689;50.836;3.266;2022-07-21T15:31:25;5.20;;;2.17;;
21060;SDS011;10689;50.836;3.266;2022-07-21T15:33:51;8.02;;;2.67;;
21060;SDS011;10689;50.836;3.266;2022-07-21T15:36:18;6.97;;;3.10;;
21060;SDS011;10689;50.836;3.266;2022-07-21T15:38:43;4.50;;;1.98;;
21060;SDS011;10689;50.836;3.266;2022-07-21T15:41:09;7.82;;;2.13;;